sensor_id;sensor_type;location;lat;lon;timestamp;P1;durP1;ratioP1;P2;durP2;ratioP2
26953;SDS011;14508;50.924;11.600;2022-10-03T00:01:21;10.70;;;2.72;;
26953;SDS011;14508;50.924;11.600;2022-10-03T00:04:12;8.50;;;1.85;;
26953;SDS011;14508;50.924;11.600;2022-10-03T00:06:53;10.05;;;2.33;;
26953;SDS011;14508;50.924;11.600;2022-10-03T00:09:35;12.70;;;2.28;;
26953;SDS011;14508;50.924;11.600;2022-10-03T00:12:30;8.82;;;1.67;;
26953;SDS011;14508;50.924;11.600;2022-10-03T00:15:04;12.07;;;2.10;;
26953;SDS011;14508;50.924;11.600;2022-10-03T00:17:37;12.68;;;2.00;;
26953;SDS011;14508;50.924;11.600;2022-10-03T00:20:15;13.48;;;2.70;;
26953;SDS011;14508;50.924;11.600;2022-10-03T00:23:01;18.15;;;2.42;;
26953;SDS011;14508;50.924;11.600;2022-10-03T00:25:36;8.77;;;1.98;;
26953;SDS011;14508;50.924;11.600;2022-10-03T00:28:17;14.50;;;2.22;;
26953;SDS011;14508;50.924;11.600;2022-10-03T00:30:55;15.57;;;2.15;;
26953;SDS011;14508;50.924;11.600;2022-10-03T00:33:35;10.50;;;1.90;;
26953;SDS011;14508;50.924;11.600;2022-10-03T00:36:12;12.07;;;2.25;;
26953;SDS011;14508;50.924;11.600;2022-10-03T00:38:57;11.13;;;2.53;;
26953;SDS011;14508;50.924;11.600;2022-10-03T00:50:38;11.17;;;2.43;;
26953;SDS011;14508;50.924;11.600;2022-10-03T00:56:20;14.82;;;2.47;;
26953;SDS011;14508;50.924;11.600;2022-10-03T00:59:07;7.80;;;1.75;;
26953;SDS011;14508;50.924;11.600;2022-10-03T01:01:43;12.00;;;2.03;;
26953;SDS011;14508;50.924;11.600;2022-10-03T01:04:23;6.57;;;2.25;;
26953;SDS011;14508;50.924;11.600;2022-10-03T01:07:15;14.75;;;2.20;;
26953;SDS011;14508;50.924;11.600;2022-10-03T01:09:55;12.10;;;2.35;;
26953;SDS011;14508;50.924;11.600;2022-10-03T01:15:31;8.90;;;1.65;;
26953;SDS011;14508;50.924;11.600;2022-10-03T01:18:10;8.38;;;1.98;;
26953;SDS011;14508;50.924;11.600;2022-10-03T01:20:51;12.90;;;2.00;;
26953;SDS011;14508;50.924;11.600;2022-10-03T01:29:37;31.45;;;6.57;;
26953;SDS011;14508;50.924;11.600;2022-10-03T01:32:28;25.23;;;4.63;;
26953;SDS011;14508;50.924;11.600;2022-10-03T01:35:04;13.50;;;6.40;;
26953;SDS011;14508;50.924;11.600;2022-10-03T01:37:42;13.05;;;5.28;;
26953;SDS011;14508;50.924;11.600;2022-10-03T01:40:19;14.82;;;4.88;;
26953;SDS011;14508;50.924;11.600;2022-10-03T01:42:54;12.13;;;4.93;;
26953;SDS011;14508;50.924;11.600;2022-10-03T01:45:34;14.15;;;4.07;;
26953;SDS011;14508;50.924;11.600;2022-10-03T01:48:13;7.80;;;2.72;;
26953;SDS011;14508;50.924;11.600;2022-10-03T01:50:48;14.18;;;2.20;;
26953;SDS011;14508;50.924;11.600;2022-10-03T01:53:25;18.02;;;2.85;;
26953;SDS011;14508;50.924;11.600;2022-10-03T01:56:01;11.68;;;2.22;;
26953;SDS011;14508;50.924;11.600;2022-10-03T01:58:38;11.45;;;2.47;;
26953;SDS011;14508;50.924;11.600;2022-10-03T02:01:14;12.02;;;2.22;;
26953;SDS011;14508;50.924;11.600;2022-10-03T02:03:48;15.65;;;2.20;;
26953;SDS011;14508;50.924;11.600;2022-10-03T02:06:21;10.32;;;2.22;;
26953;SDS011;14508;50.924;11.600;2022-10-03T02:08:54;16.48;;;2.67;;
26953;SDS011;14508;50.924;11.600;2022-10-03T02:11:30;11.48;;;2.72;;
26953;SDS011;14508;50.924;11.600;2022-10-03T02:14:06;8.45;;;1.98;;
26953;SDS011;14508;50.924;11.600;2022-10-03T02:16:43;18.30;;;2.50;;
26953;SDS011;14508;50.924;11.600;2022-10-03T02:19:20;11.48;;;2.80;;
26953;SDS011;14508;50.924;11.600;2022-10-03T02:21:52;18.95;;;2.90;;
26953;SDS011;14508;50.924;11.600;2022-10-03T02:24:23;20.55;;;3.80;;
26953;SDS011;14508;50.924;11.600;2022-10-03T02:30:01;9.80;;;1.73;;
26953;SDS011;14508;50.924;11.600;2022-10-03T02:32:49;11.50;;;2.00;;
26953;SDS011;14508;50.924;11.600;2022-10-03T02:35:48;8.43;;;1.58;;
26953;SDS011;14508;50.924;11.600;2022-10-03T02:38:35;10.95;;;1.75;;
26953;SDS011;14508;50.924;11.600;2022-10-03T02:41:33;18.83;;;3.05;;
26953;SDS011;14508;50.924;11.600;2022-10-03T02:47:27;10.05;;;2.33;;
26953;SDS011;14508;50.924;11.600;2022-10-03T02:50:50;16.48;;;1.75;;
26953;SDS011;14508;50.924;11.600;2022-10-03T02:56:48;9.55;;;1.60;;
26953;SDS011;14508;50.924;11.600;2022-10-03T02:59:37;8.45;;;1.70;;
26953;SDS011;14508;50.924;11.600;2022-10-03T03:02:33;5.82;;;1.70;;
26953;SDS011;14508;50.924;11.600;2022-10-03T03:05:30;6.65;;;1.55;;
26953;SDS011;14508;50.924;11.600;2022-10-03T03:08:16;17.25;;;1.80;;
26953;SDS011;14508;50.924;11.600;2022-10-03T03:11:03;14.45;;;2.83;;
26953;SDS011;14508;50.924;11.600;2022-10-03T03:16:50;14.02;;;2.92;;
26953;SDS011;14508;50.924;11.600;2022-10-03T03:19:29;9.82;;;1.65;;
26953;SDS011;14508;50.924;11.600;2022-10-03T03:22:18;18.48;;;2.10;;
26953;SDS011;14508;50.924;11.600;2022-10-03T03:25:19;8.52;;;2.42;;
26953;SDS011;14508;50.924;11.600;2022-10-03T03:28:00;10.43;;;2.40;;
26953;SDS011;14508;50.924;11.600;2022-10-03T03:30:46;11.77;;;2.22;;
26953;SDS011;14508;50.924;11.600;2022-10-03T03:33:24;13.32;;;1.98;;
26953;SDS011;14508;50.924;11.600;2022-10-03T03:36:00;9.25;;;1.85;;
26953;SDS011;14508;50.924;11.600;2022-10-03T03:38:36;9.25;;;2.17;;
26953;SDS011;14508;50.924;11.600;2022-10-03T03:41:20;9.13;;;2.00;;
26953;SDS011;14508;50.924;11.600;2022-10-03T03:44:05;13.05;;;2.17;;
26953;SDS011;14508;50.924;11.600;2022-10-03T03:46:50;6.28;;;1.60;;
26953;SDS011;14508;50.924;11.600;2022-10-03T03:49:30;17.25;;;2.53;;
26953;SDS011;14508;50.924;11.600;2022-10-03T03:52:12;19.30;;;2.22;;
26953;SDS011;14508;50.924;11.600;2022-10-03T03:55:05;13.68;;;2.03;;
26953;SDS011;14508;50.924;11.600;2022-10-03T03:58:04;15.18;;;1.90;;
26953;SDS011;14508;50.924;11.600;2022-10-03T04:00:48;19.52;;;2.00;;
26953;SDS011;14508;50.924;11.600;2022-10-03T04:03:29;11.38;;;1.60;;
26953;SDS011;14508;50.924;11.600;2022-10-03T04:06:20;9.80;;;1.90;;
26953;SDS011;14508;50.924;11.600;2022-10-03T04:12:01;12.15;;;1.42;;
26953;SDS011;14508;50.924;11.600;2022-10-03T04:14:40;8.77;;;2.13;;
26953;SDS011;14508;50.924;11.600;2022-10-03T04:17:29;13.63;;;1.73;;
26953;SDS011;14508;50.924;11.600;2022-10-03T04:20:34;11.85;;;1.95;;
26953;SDS011;14508;50.924;11.600;2022-10-03T04:23:37;8.25;;;1.70;;
26953;SDS011;14508;50.924;11.600;2022-10-03T04:26:21;19.88;;;2.38;;
26953;SDS011;14508;50.924;11.600;2022-10-03T04:31:56;11.68;;;2.03;;
26953;SDS011;14508;50.924;11.600;2022-10-03T04:34:36;10.55;;;2.20;;
26953;SDS011;14508;50.924;11.600;2022-10-03T04:40:07;13.60;;;2.45;;
26953;SDS011;14508;50.924;11.600;2022-10-03T04:42:47;11.75;;;2.15;;
26953;SDS011;14508;50.924;11.600;2022-10-03T04:45:29;15.75;;;1.98;;
26953;SDS011;14508;50.924;11.600;2022-10-03T04:48:08;13.10;;;1.77;;
26953;SDS011;14508;50.924;11.600;2022-10-03T04:50:41;31.08;;;2.22;;
26953;SDS011;14508;50.924;11.600;2022-10-03T04:53:17;11.70;;;1.77;;
26953;SDS011;14508;50.924;11.600;2022-10-03T04:55:49;18.67;;;2.73;;
26953;SDS011;14508;50.924;11.600;2022-10-03T04:58:25;11.32;;;2.03;;
26953;SDS011;14508;50.924;11.600;2022-10-03T05:01:01;11.52;;;2.00;;
26953;SDS011;14508;50.924;11.600;2022-10-03T05:03:39;12.23;;;1.85;;
26953;SDS011;14508;50.924;11.600;2022-10-03T05:06:27;17.88;;;2.22;;
26953;SDS011;14508;50.924;11.600;2022-10-03T05:09:03;13.95;;;2.47;;
26953;SDS011;14508;50.924;11.600;2022-10-03T05:11:47;20.60;;;2.75;;
26953;SDS011;14508;50.924;11.600;2022-10-03T05:14:25;16.17;;;2.97;;
26953;SDS011;14508;50.924;11.600;2022-10-03T05:17:06;13.50;;;2.30;;
26953;SDS011;14508;50.924;11.600;2022-10-03T05:19:48;14.57;;;1.77;;
26953;SDS011;14508;50.924;11.600;2022-10-03T05:22:41;12.40;;;2.33;;
26953;SDS011;14508;50.924;11.600;2022-10-03T05:25:17;10.27;;;2.53;;
26953;SDS011;14508;50.924;11.600;2022-10-03T05:27:55;6.38;;;1.67;;
26953;SDS011;14508;50.924;11.600;2022-10-03T05:30:33;12.68;;;2.67;;
26953;SDS011;14508;50.924;11.600;2022-10-03T05:33:08;14.48;;;2.95;;
26953;SDS011;14508;50.924;11.600;2022-10-03T05:35:47;16.77;;;2.28;;
26953;SDS011;14508;50.924;11.600;2022-10-03T05:38:29;14.43;;;2.83;;
26953;SDS011;14508;50.924;11.600;2022-10-03T05:41:18;21.48;;;2.67;;
26953;SDS011;14508;50.924;11.600;2022-10-03T05:43:53;14.70;;;2.08;;
26953;SDS011;14508;50.924;11.600;2022-10-03T05:46:37;11.07;;;2.50;;
26953;SDS011;14508;50.924;11.600;2022-10-03T05:49:15;16.17;;;2.05;;
26953;SDS011;14508;50.924;11.600;2022-10-03T05:52:05;9.68;;;1.98;;
26953;SDS011;14508;50.924;11.600;2022-10-03T05:55:18;18.00;;;2.45;;
26953;SDS011;14508;50.924;11.600;2022-10-03T06:01:07;13.90;;;2.60;;
26953;SDS011;14508;50.924;11.600;2022-10-03T06:03:58;12.65;;;2.60;;
26953;SDS011;14508;50.924;11.600;2022-10-03T06:06:42;17.05;;;2.70;;
26953;SDS011;14508;50.924;11.600;2022-10-03T06:09:38;21.10;;;2.47;;
26953;SDS011;14508;50.924;11.600;2022-10-03T06:12:25;14.15;;;3.08;;
26953;SDS011;14508;50.924;11.600;2022-10-03T06:18:08;18.75;;;3.05;;
26953;SDS011;14508;50.924;11.600;2022-10-03T06:23:51;20.75;;;5.22;;
26953;SDS011;14508;50.924;11.600;2022-10-03T06:26:43;17.15;;;2.95;;
26953;SDS011;14508;50.924;11.600;2022-10-03T06:32:33;15.10;;;3.10;;
26953;SDS011;14508;50.924;11.600;2022-10-03T06:35:51;26.05;;;3.50;;
26953;SDS011;14508;50.924;11.600;2022-10-03T06:41:59;19.42;;;2.80;;
26953;SDS011;14508;50.924;11.600;2022-10-03T06:44:52;28.27;;;5.45;;
26953;SDS011;14508;50.924;11.600;2022-10-03T06:47:41;47.95;;;13.07;;
26953;SDS011;14508;50.924;11.600;2022-10-03T06:50:25;85.03;;;27.88;;
26953;SDS011;14508;50.924;11.600;2022-10-03T06:53:24;64.50;;;21.02;;
26953;SDS011;14508;50.924;11.600;2022-10-03T06:56:38;15.02;;;3.00;;
26953;SDS011;14508;50.924;11.600;2022-10-03T06:59:33;10.23;;;2.30;;
26953;SDS011;14508;50.924;11.600;2022-10-03T07:02:28;15.68;;;3.03;;
26953;SDS011;14508;50.924;11.600;2022-10-03T07:08:34;23.20;;;6.03;;
26953;SDS011;14508;50.924;11.600;2022-10-03T07:11:28;15.20;;;5.43;;
26953;SDS011;14508;50.924;11.600;2022-10-03T07:14:17;18.80;;;3.50;;
26953;SDS011;14508;50.924;11.600;2022-10-03T07:17:16;12.20;;;2.78;;
26953;SDS011;14508;50.924;11.600;2022-10-03T07:20:25;14.93;;;2.70;;
26953;SDS011;14508;50.924;11.600;2022-10-03T07:23:27;12.13;;;2.88;;
26953;SDS011;14508;50.924;11.600;2022-10-03T07:26:20;15.02;;;2.10;;
26953;SDS011;14508;50.924;11.600;2022-10-03T07:29:22;18.45;;;3.33;;
26953;SDS011;14508;50.924;11.600;2022-10-03T07:32:16;16.77;;;2.60;;
26953;SDS011;14508;50.924;11.600;2022-10-03T07:38:18;14.45;;;2.40;;
26953;SDS011;14508;50.924;11.600;2022-10-03T07:41:20;9.77;;;2.33;;
26953;SDS011;14508;50.924;11.600;2022-10-03T07:44:06;9.20;;;2.30;;
26953;SDS011;14508;50.924;11.600;2022-10-03T07:50:00;12.45;;;2.42;;
26953;SDS011;14508;50.924;11.600;2022-10-03T07:52:51;13.05;;;2.08;;
26953;SDS011;14508;50.924;11.600;2022-10-03T07:55:40;10.43;;;2.17;;
26953;SDS011;14508;50.924;11.600;2022-10-03T07:58:34;16.90;;;2.63;;
26953;SDS011;14508;50.924;11.600;2022-10-03T08:01:18;12.75;;;3.10;;
26953;SDS011;14508;50.924;11.600;2022-10-03T08:04:15;19.38;;;2.63;;
26953;SDS011;14508;50.924;11.600;2022-10-03T08:07:14;10.43;;;2.55;;
26953;SDS011;14508;50.924;11.600;2022-10-03T08:09:57;11.30;;;2.38;;
26953;SDS011;14508;50.924;11.600;2022-10-03T08:12:46;8.68;;;2.05;;
26953;SDS011;14508;50.924;11.600;2022-10-03T08:15:40;12.48;;;2.03;;
26953;SDS011;14508;50.924;11.600;2022-10-03T08:21:22;16.52;;;2.55;;
26953;SDS011;14508;50.924;11.600;2022-10-03T08:27:08;17.23;;;2.45;;
26953;SDS011;14508;50.924;11.600;2022-10-03T08:30:04;8.02;;;1.65;;
26953;SDS011;14508;50.924;11.600;2022-10-03T08:32:47;9.10;;;2.00;;
26953;SDS011;14508;50.924;11.600;2022-10-03T08:38:31;12.23;;;2.17;;
26953;SDS011;14508;50.924;11.600;2022-10-03T08:44:42;13.30;;;2.33;;
26953;SDS011;14508;50.924;11.600;2022-10-03T08:50:40;13.43;;;2.22;;
26953;SDS011;14508;50.924;11.600;2022-10-03T08:56:47;13.50;;;2.33;;
26953;SDS011;14508;50.924;11.600;2022-10-03T09:02:41;10.30;;;1.77;;
26953;SDS011;14508;50.924;11.600;2022-10-03T09:08:36;1.65;;;1.20;;
26953;SDS011;14508;50.924;11.600;2022-10-03T09:11:31;16.48;;;2.10;;
26953;SDS011;14508;50.924;11.600;2022-10-03T09:17:05;4.72;;;1.17;;
26953;SDS011;14508;50.924;11.600;2022-10-03T09:20:12;6.60;;;1.77;;
26953;SDS011;14508;50.924;11.600;2022-10-03T09:23:01;6.70;;;1.30;;
26953;SDS011;14508;50.924;11.600;2022-10-03T09:25:52;8.38;;;1.33;;
26953;SDS011;14508;50.924;11.600;2022-10-03T09:28:44;14.20;;;2.13;;
26953;SDS011;14508;50.924;11.600;2022-10-03T09:34:37;7.68;;;1.67;;
26953;SDS011;14508;50.924;11.600;2022-10-03T09:37:38;8.10;;;1.67;;
26953;SDS011;14508;50.924;11.600;2022-10-03T09:40:29;10.50;;;1.67;;
26953;SDS011;14508;50.924;11.600;2022-10-03T09:53:05;6.53;;;1.77;;
26953;SDS011;14508;50.924;11.600;2022-10-03T09:55:58;4.78;;;1.10;;
26953;SDS011;14508;50.924;11.600;2022-10-03T09:59:01;5.70;;;1.23;;
26953;SDS011;14508;50.924;11.600;2022-10-03T10:01:39;10.02;;;1.50;;
26953;SDS011;14508;50.924;11.600;2022-10-03T10:04:29;10.52;;;1.63;;
26953;SDS011;14508;50.924;11.600;2022-10-03T10:10:02;6.03;;;1.63;;
26953;SDS011;14508;50.924;11.600;2022-10-03T10:15:52;10.38;;;1.70;;
26953;SDS011;14508;50.924;11.600;2022-10-03T10:18:56;8.02;;;1.63;;
26953;SDS011;14508;50.924;11.600;2022-10-03T10:22:07;11.52;;;1.75;;
26953;SDS011;14508;50.924;11.600;2022-10-03T10:27:56;5.95;;;1.20;;
26953;SDS011;14508;50.924;11.600;2022-10-03T10:40:29;6.78;;;1.60;;
26953;SDS011;14508;50.924;11.600;2022-10-03T10:43:23;4.78;;;1.73;;
26953;SDS011;14508;50.924;11.600;2022-10-03T10:46:24;6.07;;;1.67;;
26953;SDS011;14508;50.924;11.600;2022-10-03T11:04:40;6.53;;;1.20;;
26953;SDS011;14508;50.924;11.600;2022-10-03T11:07:41;7.82;;;1.40;;
26953;SDS011;14508;50.924;11.600;2022-10-03T11:13:46;6.35;;;1.42;;
26953;SDS011;14508;50.924;11.600;2022-10-03T11:17:02;12.80;;;1.85;;
26953;SDS011;14508;50.924;11.600;2022-10-03T11:19:57;10.70;;;1.30;;
26953;SDS011;14508;50.924;11.600;2022-10-03T11:26:15;9.13;;;1.80;;
26953;SDS011;14508;50.924;11.600;2022-10-03T11:32:13;10.10;;;1.40;;
26953;SDS011;14508;50.924;11.600;2022-10-03T11:38:10;5.03;;;1.73;;
26953;SDS011;14508;50.924;11.600;2022-10-03T11:40:46;7.88;;;1.42;;
26953;SDS011;14508;50.924;11.600;2022-10-03T11:46:26;9.30;;;1.35;;
26953;SDS011;14508;50.924;11.600;2022-10-03T11:49:06;9.30;;;1.38;;
26953;SDS011;14508;50.924;11.600;2022-10-03T11:51:49;5.05;;;1.00;;
26953;SDS011;14508;50.924;11.600;2022-10-03T11:54:23;6.43;;;1.10;;
26953;SDS011;14508;50.924;11.600;2022-10-03T11:56:55;4.07;;;1.75;;
26953;SDS011;14508;50.924;11.600;2022-10-03T11:59:43;7.63;;;1.90;;
26953;SDS011;14508;50.924;11.600;2022-10-03T12:02:30;6.82;;;1.33;;
26953;SDS011;14508;50.924;11.600;2022-10-03T12:05:22;4.65;;;1.52;;
26953;SDS011;14508;50.924;11.600;2022-10-03T12:08:05;4.93;;;1.23;;
26953;SDS011;14508;50.924;11.600;2022-10-03T12:11:03;10.20;;;1.33;;
26953;SDS011;14508;50.924;11.600;2022-10-03T12:13:40;5.75;;;0.88;;
26953;SDS011;14508;50.924;11.600;2022-10-03T12:16:26;2.58;;;0.95;;
26953;SDS011;14508;50.924;11.600;2022-10-03T12:18:57;7.43;;;1.13;;
26953;SDS011;14508;50.924;11.600;2022-10-03T12:21:37;4.38;;;0.95;;
26953;SDS011;14508;50.924;11.600;2022-10-03T12:24:17;6.25;;;1.38;;
26953;SDS011;14508;50.924;11.600;2022-10-03T12:26:51;6.43;;;1.10;;
26953;SDS011;14508;50.924;11.600;2022-10-03T12:29:25;6.05;;;1.60;;
26953;SDS011;14508;50.924;11.600;2022-10-03T12:32:02;9.13;;;1.45;;
26953;SDS011;14508;50.924;11.600;2022-10-03T12:34:50;5.03;;;1.27;;
26953;SDS011;14508;50.924;11.600;2022-10-03T12:40:34;5.07;;;1.00;;
26953;SDS011;14508;50.924;11.600;2022-10-03T12:43:08;4.43;;;1.17;;
26953;SDS011;14508;50.924;11.600;2022-10-03T12:45:49;3.72;;;0.95;;
26953;SDS011;14508;50.924;11.600;2022-10-03T12:48:37;3.15;;;1.00;;
26953;SDS011;14508;50.924;11.600;2022-10-03T12:51:17;7.78;;;1.13;;
26953;SDS011;14508;50.924;11.600;2022-10-03T12:53:54;7.03;;;0.90;;
26953;SDS011;14508;50.924;11.600;2022-10-03T12:56:33;6.50;;;1.65;;
26953;SDS011;14508;50.924;11.600;2022-10-03T12:59:18;4.10;;;1.08;;
26953;SDS011;14508;50.924;11.600;2022-10-03T13:02:00;8.40;;;1.13;;
26953;SDS011;14508;50.924;11.600;2022-10-03T13:04:54;3.17;;;1.30;;
26953;SDS011;14508;50.924;11.600;2022-10-03T13:07:43;5.80;;;1.17;;
26953;SDS011;14508;50.924;11.600;2022-10-03T13:10:19;3.70;;;0.83;;
26953;SDS011;14508;50.924;11.600;2022-10-03T13:13:00;8.30;;;1.20;;
26953;SDS011;14508;50.924;11.600;2022-10-03T13:15:41;5.07;;;1.00;;
26953;SDS011;14508;50.924;11.600;2022-10-03T13:18:32;7.90;;;1.20;;
26953;SDS011;14508;50.924;11.600;2022-10-03T13:21:08;2.85;;;0.90;;
26953;SDS011;14508;50.924;11.600;2022-10-03T13:23:41;5.28;;;1.27;;
26953;SDS011;14508;50.924;11.600;2022-10-03T13:26:15;4.25;;;1.17;;
26953;SDS011;14508;50.924;11.600;2022-10-03T13:31:55;5.03;;;0.83;;
26953;SDS011;14508;50.924;11.600;2022-10-03T13:34:45;5.57;;;1.10;;
26953;SDS011;14508;50.924;11.600;2022-10-03T13:37:49;3.15;;;0.82;;
26953;SDS011;14508;50.924;11.600;2022-10-03T13:40:28;6.22;;;1.17;;
26953;SDS011;14508;50.924;11.600;2022-10-03T13:43:00;4.22;;;0.80;;
26953;SDS011;14508;50.924;11.600;2022-10-03T13:45:29;4.05;;;0.93;;
26953;SDS011;14508;50.924;11.600;2022-10-03T13:47:59;4.30;;;0.80;;
26953;SDS011;14508;50.924;11.600;2022-10-03T13:50:33;4.10;;;0.95;;
26953;SDS011;14508;50.924;11.600;2022-10-03T13:53:08;5.13;;;1.10;;
26953;SDS011;14508;50.924;11.600;2022-10-03T13:55:40;4.25;;;1.10;;
26953;SDS011;14508;50.924;11.600;2022-10-03T13:58:26;5.05;;;0.80;;
26953;SDS011;14508;50.924;11.600;2022-10-03T14:01:16;3.45;;;1.00;;
26953;SDS011;14508;50.924;11.600;2022-10-03T14:04:09;6.63;;;0.90;;
26953;SDS011;14508;50.924;11.600;2022-10-03T14:07:06;7.60;;;1.00;;
26953;SDS011;14508;50.924;11.600;2022-10-03T14:09:52;3.70;;;0.85;;
26953;SDS011;14508;50.924;11.600;2022-10-03T14:12:40;4.25;;;1.20;;
26953;SDS011;14508;50.924;11.600;2022-10-03T14:15:24;2.28;;;0.50;;
26953;SDS011;14508;50.924;11.600;2022-10-03T14:18:02;4.65;;;0.90;;
26953;SDS011;14508;50.924;11.600;2022-10-03T14:20:40;6.18;;;1.27;;
26953;SDS011;14508;50.924;11.600;2022-10-03T14:23:53;8.25;;;1.00;;
26953;SDS011;14508;50.924;11.600;2022-10-03T14:26:29;4.63;;;1.27;;
26953;SDS011;14508;50.924;11.600;2022-10-03T14:29:01;5.18;;;1.52;;
26953;SDS011;14508;50.924;11.600;2022-10-03T14:31:34;2.78;;;0.95;;
26953;SDS011;14508;50.924;11.600;2022-10-03T14:34:07;5.75;;;0.88;;
26953;SDS011;14508;50.924;11.600;2022-10-03T14:36:45;5.93;;;1.33;;
26953;SDS011;14508;50.924;11.600;2022-10-03T14:39:21;3.08;;;0.90;;
26953;SDS011;14508;50.924;11.600;2022-10-03T14:42:11;8.73;;;1.17;;
26953;SDS011;14508;50.924;11.600;2022-10-03T14:44:55;6.63;;;1.20;;
26953;SDS011;14508;50.924;11.600;2022-10-03T14:47:24;3.33;;;1.05;;
26953;SDS011;14508;50.924;11.600;2022-10-03T14:49:58;4.03;;;1.50;;
26953;SDS011;14508;50.924;11.600;2022-10-03T14:52:29;4.13;;;1.35;;
26953;SDS011;14508;50.924;11.600;2022-10-03T14:55:02;3.70;;;1.00;;
26953;SDS011;14508;50.924;11.600;2022-10-03T15:00:21;6.57;;;1.17;;
26953;SDS011;14508;50.924;11.600;2022-10-03T15:02:49;2.65;;;1.05;;
26953;SDS011;14508;50.924;11.600;2022-10-03T15:05:18;5.97;;;1.10;;
26953;SDS011;14508;50.924;11.600;2022-10-03T15:07:58;4.63;;;1.20;;
26953;SDS011;14508;50.924;11.600;2022-10-03T15:10:27;6.88;;;1.38;;
26953;SDS011;14508;50.924;11.600;2022-10-03T15:12:57;5.57;;;1.20;;
26953;SDS011;14508;50.924;11.600;2022-10-03T15:15:29;15.38;;;1.40;;
26953;SDS011;14508;50.924;11.600;2022-10-03T15:18:00;3.95;;;1.40;;
26953;SDS011;14508;50.924;11.600;2022-10-03T15:20:31;8.00;;;2.50;;
26953;SDS011;14508;50.924;11.600;2022-10-03T15:23:02;5.00;;;1.35;;
26953;SDS011;14508;50.924;11.600;2022-10-03T15:25:32;5.97;;;1.45;;
26953;SDS011;14508;50.924;11.600;2022-10-03T15:28:03;8.18;;;1.50;;
26953;SDS011;14508;50.924;11.600;2022-10-03T15:30:34;8.27;;;1.42;;
26953;SDS011;14508;50.924;11.600;2022-10-03T15:33:03;2.95;;;1.50;;
26953;SDS011;14508;50.924;11.600;2022-10-03T15:35:36;4.72;;;1.58;;
26953;SDS011;14508;50.924;11.600;2022-10-03T15:38:10;8.18;;;1.85;;
26953;SDS011;14508;50.924;11.600;2022-10-03T15:40:43;5.78;;;1.70;;
26953;SDS011;14508;50.924;11.600;2022-10-03T15:45:51;5.27;;;1.27;;
26953;SDS011;14508;50.924;11.600;2022-10-03T15:48:20;11.40;;;1.83;;
26953;SDS011;14508;50.924;11.600;2022-10-03T15:50:50;11.70;;;2.13;;
26953;SDS011;14508;50.924;11.600;2022-10-03T15:53:23;8.95;;;2.28;;
26953;SDS011;14508;50.924;11.600;2022-10-03T15:55:52;8.23;;;2.00;;
26953;SDS011;14508;50.924;11.600;2022-10-03T15:58:25;3.92;;;1.00;;
26953;SDS011;14508;50.924;11.600;2022-10-03T16:00:59;6.65;;;1.40;;
26953;SDS011;14508;50.924;11.600;2022-10-03T16:03:30;6.63;;;1.42;;
26953;SDS011;14508;50.924;11.600;2022-10-03T16:06:07;3.05;;;1.00;;
26953;SDS011;14508;50.924;11.600;2022-10-03T16:08:42;8.75;;;1.67;;
26953;SDS011;14508;50.924;11.600;2022-10-03T16:11:20;11.73;;;2.00;;
26953;SDS011;14508;50.924;11.600;2022-10-03T16:13:51;6.07;;;1.10;;
26953;SDS011;14508;50.924;11.600;2022-10-03T16:16:30;8.27;;;1.05;;
26953;SDS011;14508;50.924;11.600;2022-10-03T16:19:08;5.90;;;1.17;;
26953;SDS011;14508;50.924;11.600;2022-10-03T16:22:03;5.65;;;1.65;;
26953;SDS011;14508;50.924;11.600;2022-10-03T16:24:41;8.25;;;1.73;;
26953;SDS011;14508;50.924;11.600;2022-10-03T16:27:13;6.18;;;1.27;;
26953;SDS011;14508;50.924;11.600;2022-10-03T16:29:44;11.95;;;2.03;;
26953;SDS011;14508;50.924;11.600;2022-10-03T16:32:18;10.57;;;3.07;;
26953;SDS011;14508;50.924;11.600;2022-10-03T16:34:48;11.13;;;4.32;;
26953;SDS011;14508;50.924;11.600;2022-10-03T16:37:17;13.95;;;4.13;;
26953;SDS011;14508;50.924;11.600;2022-10-03T16:39:50;9.10;;;2.65;;
26953;SDS011;14508;50.924;11.600;2022-10-03T16:42:21;4.82;;;2.42;;
26953;SDS011;14508;50.924;11.600;2022-10-03T16:44:50;8.57;;;3.25;;
26953;SDS011;14508;50.924;11.600;2022-10-03T16:47:26;7.10;;;2.40;;
26953;SDS011;14508;50.924;11.600;2022-10-03T16:49:57;8.80;;;2.80;;
26953;SDS011;14508;50.924;11.600;2022-10-03T16:52:51;9.07;;;1.98;;
26953;SDS011;14508;50.924;11.600;2022-10-03T16:55:23;5.68;;;2.13;;
26953;SDS011;14508;50.924;11.600;2022-10-03T16:57:54;5.15;;;1.92;;
26953;SDS011;14508;50.924;11.600;2022-10-03T17:00:23;5.43;;;2.05;;
26953;SDS011;14508;50.924;11.600;2022-10-03T17:02:57;7.70;;;2.33;;
26953;SDS011;14508;50.924;11.600;2022-10-03T17:05:24;12.93;;;2.53;;
26953;SDS011;14508;50.924;11.600;2022-10-03T17:07:52;7.10;;;3.08;;
26953;SDS011;14508;50.924;11.600;2022-10-03T17:10:28;5.10;;;1.95;;
26953;SDS011;14508;50.924;11.600;2022-10-03T17:13:02;8.23;;;1.85;;
26953;SDS011;14508;50.924;11.600;2022-10-03T17:15:37;6.82;;;2.40;;
26953;SDS011;14508;50.924;11.600;2022-10-03T17:18:13;5.32;;;1.40;;
26953;SDS011;14508;50.924;11.600;2022-10-03T17:23:20;3.85;;;1.67;;
26953;SDS011;14508;50.924;11.600;2022-10-03T17:26:01;9.43;;;1.92;;
26953;SDS011;14508;50.924;11.600;2022-10-03T17:28:33;7.13;;;2.08;;
26953;SDS011;14508;50.924;11.600;2022-10-03T17:31:13;7.65;;;2.05;;
26953;SDS011;14508;50.924;11.600;2022-10-03T17:33:51;8.55;;;2.42;;
26953;SDS011;14508;50.924;11.600;2022-10-03T17:36:32;5.22;;;1.98;;
26953;SDS011;14508;50.924;11.600;2022-10-03T17:39:20;9.75;;;2.25;;
26953;SDS011;14508;50.924;11.600;2022-10-03T17:42:03;14.60;;;4.43;;
26953;SDS011;14508;50.924;11.600;2022-10-03T17:44:39;8.10;;;1.90;;
26953;SDS011;14508;50.924;11.600;2022-10-03T17:47:21;9.73;;;2.15;;
26953;SDS011;14508;50.924;11.600;2022-10-03T17:49:55;10.90;;;2.60;;
26953;SDS011;14508;50.924;11.600;2022-10-03T17:52:26;9.75;;;1.95;;
26953;SDS011;14508;50.924;11.600;2022-10-03T17:54:55;11.27;;;2.42;;
26953;SDS011;14508;50.924;11.600;2022-10-03T17:57:28;10.23;;;1.90;;
26953;SDS011;14508;50.924;11.600;2022-10-03T18:00:02;12.50;;;3.35;;
26953;SDS011;14508;50.924;11.600;2022-10-03T18:02:34;8.98;;;2.85;;
26953;SDS011;14508;50.924;11.600;2022-10-03T18:05:10;9.95;;;2.92;;
26953;SDS011;14508;50.924;11.600;2022-10-03T18:07:41;6.63;;;2.28;;
26953;SDS011;14508;50.924;11.600;2022-10-03T18:10:19;7.43;;;2.13;;
26953;SDS011;14508;50.924;11.600;2022-10-03T18:12:51;5.20;;;2.50;;
26953;SDS011;14508;50.924;11.600;2022-10-03T18:15:38;6.05;;;2.35;;
26953;SDS011;14508;50.924;11.600;2022-10-03T18:18:28;9.40;;;3.17;;
26953;SDS011;14508;50.924;11.600;2022-10-03T18:21:25;5.40;;;2.28;;
26953;SDS011;14508;50.924;11.600;2022-10-03T18:27:04;9.25;;;2.85;;
26953;SDS011;14508;50.924;11.600;2022-10-03T18:29:44;6.60;;;2.00;;
26953;SDS011;14508;50.924;11.600;2022-10-03T18:32:16;8.55;;;2.22;;
26953;SDS011;14508;50.924;11.600;2022-10-03T18:34:47;4.85;;;1.83;;
26953;SDS011;14508;50.924;11.600;2022-10-03T18:40:17;8.23;;;1.92;;
26953;SDS011;14508;50.924;11.600;2022-10-03T18:42:45;12.88;;;4.22;;
26953;SDS011;14508;50.924;11.600;2022-10-03T18:45:17;9.50;;;2.78;;
26953;SDS011;14508;50.924;11.600;2022-10-03T18:47:49;5.70;;;2.40;;
26953;SDS011;14508;50.924;11.600;2022-10-03T18:50:19;6.05;;;2.03;;
26953;SDS011;14508;50.924;11.600;2022-10-03T18:52:51;2.95;;;1.83;;
26953;SDS011;14508;50.924;11.600;2022-10-03T18:55:21;10.38;;;2.53;;